Time;durP1;ratioP1;P1;durP2;ratioP2;P2;SDS_P1;SDS_P2;PMS_P1;PMS_P2;Temp;Humidity;BMP_temperature;BMP_pressure;BME280_temperature;BME280_humidity;BME280_pressure;Samples;Min_cycle;Max_cycle;Signal;HPM_P1;HPM_P2
2021/04/16 00:00:07;;;;;;;6.03;2.60;;;;;;;21.81;42.57;100785.52;1764341;78;22139;-61
2021/04/16 00:02:35;;;;;;;8.48;3.00;;;;;;;21.79;42.58;100778.12;1764572;79;21344;-60
2021/04/16 00:05:03;;;;;;;7.15;3.83;;;;;;;21.78;42.57;100783.97;1759952;78;21598;-60
2021/04/16 00:07:29;;;;;;;7.12;2.55;;;;;;;21.75;42.61;100778.53;1768650;78;21609;-60
2021/04/16 00:09:56;;;;;;;3.98;2.60;;;;;;;21.73;42.62;100778.59;1771620;79;21218;-61
2021/04/16 00:12:23;;;;;;;4.83;2.37;;;;;;;21.72;42.64;100781.95;1749977;79;21974;-60
2021/04/16 00:14:49;;;;;;;5.17;2.30;;;;;;;21.72;42.66;100781.14;1754018;80;21258;-60
2021/04/16 00:17:16;;;;;;;7.12;2.90;;;;;;;21.72;42.66;100780.58;1768898;78;21263;-61
2021/04/16 00:19:42;;;;;;;5.90;2.52;;;;;;;21.72;42.66;100776.42;1764037;79;21200;-60
2021/04/16 00:22:09;;;;;;;4.45;2.27;;;;;;;21.71;42.66;100772.02;1776125;78;21636;-60
2021/04/16 00:24:35;;;;;;;5.87;2.77;;;;;;;21.72;42.67;100783.91;1727844;80;21208;-60
2021/04/16 00:27:02;;;;;;;5.33;2.33;;;;;;;21.70;42.70;100782.02;1756667;78;21193;-62
2021/04/16 00:29:29;;;;;;;3.50;2.40;;;;;;;21.69;42.66;100782.59;1761066;79;21230;-62
2021/04/16 00:31:56;;;;;;;6.08;3.08;;;;;;;21.66;42.67;100783.81;1762407;78;21548;-62
2021/04/16 00:34:24;;;;;;;3.50;2.10;;;;;;;21.64;42.70;100784.72;1770265;78;21177;-62
2021/04/16 00:36:51;;;;;;;3.75;2.30;;;;;;;21.61;42.71;100788.12;1763017;79;21406;-62
2021/04/16 00:39:21;;;;;;;4.83;2.47;;;;;;;21.60;42.75;100784.53;1763049;78;21525;-62
2021/04/16 00:41:47;;;;;;;6.03;2.30;;;;;;;21.59;42.75;100793.18;1765191;79;21209;-61
2021/04/16 00:44:15;;;;;;;4.53;2.17;;;;;;;21.58;42.77;100792.93;1768239;78;21131;-61
2021/04/16 00:46:58;;;;;;;4.65;2.20;;;;;;;21.57;42.75;100791.30;1779485;78;21207;-62
2021/04/16 00:49:35;;;;;;;5.15;2.20;;;;;;;21.54;42.77;100794.16;1774761;78;22743;-62
2021/04/16 00:52:03;;;;;;;5.72;2.72;;;;;;;21.53;42.77;100795.28;1756424;79;21203;-62
2021/04/16 00:54:36;;;;;;;4.00;2.20;;;;;;;21.51;42.79;100790.66;1767088;80;21213;-62
2021/04/16 00:57:04;;;;;;;3.47;2.22;;;;;;;21.50;42.81;100785.44;1754144;79;21232;-62
2021/04/16 00:59:33;;;;;;;3.55;2.20;;;;;;;21.49;42.82;100792.10;1735451;79;21917;-62
2021/04/16 01:02:01;;;;;;;4.15;2.25;;;;;;;21.47;42.81;100785.52;1760102;79;21224;-61
2021/04/16 01:04:29;;;;;;;5.05;2.17;;;;;;;21.45;42.82;100776.72;1759094;79;21260;-62
2021/04/16 01:06:55;;;;;;;5.37;2.02;;;;;;;21.45;42.83;100777.28;1759477;79;21467;-61
2021/04/16 01:09:22;;;;;;;3.47;1.85;;;;;;;21.43;42.86;100775.64;1752175;80;21203;-61
2021/04/16 01:11:49;;;;;;;4.12;2.00;;;;;;;21.43;42.86;100783.13;1738365;79;21278;-61
2021/04/16 01:14:16;;;;;;;5.40;2.08;;;;;;;21.42;42.88;100784.29;1763642;79;21624;-61
2021/04/16 01:16:43;;;;;;;4.85;2.33;;;;;;;21.41;42.88;100787.62;1732690;82;21255;-61
2021/04/16 01:19:30;;;;;;;3.17;2.25;;;;;;;21.40;42.90;100796.24;1749020;79;21134;-61
2021/04/16 01:22:10;;;;;;;4.15;2.10;;;;;;;21.38;42.90;100802.69;1740012;79;21161;-61
2021/04/16 01:24:37;;;;;;;4.87;2.23;;;;;;;21.34;43.09;100798.94;1729429;80;21201;-62
2021/04/16 01:27:12;;;;;;;3.52;2.10;;;;;;;21.34;43.09;100798.94;1758602;79;22159;-61
2021/04/16 01:29:42;;;;;;;3.47;2.40;;;;;;;21.30;42.94;100796.56;1758477;79;21186;-61
2021/04/16 01:32:23;;;;;;;3.92;2.10;;;;;;;21.27;42.97;100799.95;1784077;78;21209;-62
2021/04/16 01:34:49;;;;;;;3.42;2.40;;;;;;;21.23;42.99;100803.94;1756067;79;21233;-62
2021/04/16 01:37:16;;;;;;;5.03;2.35;;;;;;;21.22;43.05;100798.72;1753968;80;21204;-61
2021/04/16 01:39:42;;;;;;;5.53;2.30;;;;;;;21.22;43.11;100802.30;1777980;79;21905;-62
2021/04/16 01:42:09;;;;;;;3.77;2.20;;;;;;;21.24;43.11;100801.98;1747029;79;21170;-62
2021/04/16 01:44:36;;;;;;;4.92;2.10;;;;;;;21.25;43.12;100802.24;1737705;79;21185;-62
2021/04/16 01:47:07;;;;;;;3.45;2.20;;;;;;;21.25;43.11;100807.22;1750008;79;21123;-61
2021/04/16 01:49:38;;;;;;;3.55;2.00;;;;;;;21.25;43.12;100803.06;1751658;79;21207;-61
2021/04/16 01:52:06;;;;;;;2.77;2.08;;;;;;;21.27;43.12;100809.64;1759854;79;22180;-61
2021/04/16 01:54:36;;;;;;;3.17;1.98;;;;;;;21.26;43.11;100806.65;1759033;79;21277;-61
2021/04/16 01:57:10;;;;;;;3.70;2.30;;;;;;;21.24;43.11;100805.58;1750904;80;21145;-60
2021/04/16 01:59:39;;;;;;;5.03;2.27;;;;;;;21.20;43.10;100803.77;1763909;79;21623;-60
2021/04/16 02:02:07;;;;;;;4.40;2.37;;;;;;;21.20;43.13;100811.51;1773705;78;21188;-61
2021/04/16 02:04:34;;;;;;;4.85;2.37;;;;;;;21.18;43.14;100822.06;1765693;79;21619;-61
2021/04/16 02:07:01;;;;;;;3.83;2.35;;;;;;;21.19;43.15;100818.73;1761460;78;21249;-61
2021/04/16 02:09:31;;;;;;;2.70;2.17;;;;;;;21.18;43.18;100823.45;1762856;79;21569;-61
2021/04/16 02:11:58;;;;;;;3.45;2.27;;;;;;;21.20;43.19;100832.26;1765996;79;21156;-60
2021/04/16 02:14:28;;;;;;;5.70;2.67;;;;;;;21.18;43.15;100824.83;1766243;78;21242;-60
2021/04/16 02:17:01;;;;;;;3.52;1.85;;;;;;;21.17;43.16;100824.61;1776668;78;22605;-60
2021/04/16 02:19:28;;;;;;;3.83;2.42;;;;;;;21.17;43.18;100830.70;1778933;78;21217;-60
2021/04/16 02:21:55;;;;;;;4.05;2.27;;;;;;;21.17;43.18;100839.01;1761404;79;21184;-59
2021/04/16 02:24:22;;;;;;;4.37;2.45;;;;;;;21.17;43.20;100837.06;1777355;79;21629;-60
2021/04/16 02:26:48;;;;;;;3.65;2.45;;;;;;;21.15;43.22;100841.27;1765301;79;21234;-61
2021/04/16 02:29:17;;;;;;;3.72;2.35;;;;;;;21.14;43.20;100844.59;1762327;78;21273;-61
2021/04/16 02:31:44;;;;;;;3.62;2.55;;;;;;;21.12;43.18;100841.34;1782856;78;21579;-61
2021/04/16 02:34:18;;;;;;;4.20;2.47;;;;;;;21.11;43.21;100843.02;1765426;79;21182;-61
2021/04/16 02:36:44;;;;;;;5.08;2.22;;;;;;;21.10;43.24;100841.38;1745738;79;21153;-61
2021/04/16 02:39:11;;;;;;;3.65;2.15;;;;;;;21.11;43.25;100843.02;1756365;79;21149;-61
2021/04/16 02:41:37;;;;;;;4.22;2.20;;;;;;;21.10;43.25;100846.91;1762875;78;21273;-61
2021/04/16 02:44:05;;;;;;;3.10;2.05;;;;;;;21.11;43.22;100848.55;1772386;79;21183;-61
2021/04/16 02:46:32;;;;;;;3.30;2.22;;;;;;;21.09;43.25;100851.62;1769788;78;21126;-62
2021/04/16 02:48:59;;;;;;;3.47;2.52;;;;;;;21.07;43.26;100855.29;1765310;79;21550;-61
2021/04/16 02:51:26;;;;;;;3.72;2.47;;;;;;;21.05;43.25;100852.02;1762925;79;21170;-61
2021/04/16 02:53:53;;;;;;;6.20;2.62;;;;;;;21.04;43.29;100852.35;1761684;79;21801;-61
2021/04/16 02:56:20;;;;;;;4.67;2.95;;;;;;;21.04;43.28;100853.73;1763410;79;21182;-61
2021/04/16 02:58:46;;;;;;;5.80;3.12;;;;;;;21.03;43.27;100848.77;1762519;79;21181;-60
2021/04/16 03:01:13;;;;;;;4.67;2.65;;;;;;;21.00;43.25;100853.56;1752800;78;21519;-61
2021/04/16 03:03:40;;;;;;;6.65;3.00;;;;;;;20.95;43.23;100853.13;1763934;78;21768;-61
2021/04/16 03:06:07;;;;;;;6.40;2.70;;;;;;;20.92;43.24;100855.69;1753656;79;21686;-61
2021/04/16 03:08:34;;;;;;;4.67;2.50;;;;;;;20.88;43.27;100856.91;1757182;79;21190;-60
2021/04/16 03:11:00;;;;;;;4.20;2.75;;;;;;;20.84;43.30;100853.14;1759137;79;21210;-60
2021/04/16 03:13:27;;;;;;;4.10;2.55;;;;;;;20.84;43.34;100857.29;1759640;79;21998;-61
2021/04/16 03:15:54;;;;;;;5.45;2.95;;;;;;;20.82;43.34;100854.05;1763755;79;21401;-61
2021/04/16 03:18:21;;;;;;;5.90;3.10;;;;;;;20.81;43.34;100852.41;1764124;79;21605;-61
2021/04/16 03:20:47;;;;;;;6.50;2.98;;;;;;;20.80;43.31;100851.33;1759880;79;21195;-61
2021/04/16 03:23:13;;;;;;;5.47;2.60;;;;;;;20.78;43.33;100853.61;1760712;79;21206;-60
2021/04/16 03:25:40;;;;;;;6.80;3.30;;;;;;;20.75;43.32;100855.64;1767780;78;21166;-60
2021/04/16 03:28:07;;;;;;;4.28;2.80;;;;;;;20.72;43.32;100859.83;1761270;79;21203;-60
2021/04/16 03:30:34;;;;;;;5.83;3.65;;;;;;;20.70;43.31;100861.30;1782428;79;22090;-60
2021/04/16 03:33:00;;;;;;;5.60;2.62;;;;;;;20.68;43.31;100864.36;1764743;79;21094;-60
2021/04/16 03:35:27;;;;;;;5.42;2.67;;;;;;;20.65;43.34;100863.63;1757623;79;21750;-60
2021/04/16 03:37:54;;;;;;;4.60;2.77;;;;;;;20.64;43.35;100864.75;1761225;79;21220;-60
2021/04/16 03:40:25;;;;;;;3.77;2.67;;;;;;;20.64;43.38;100870.28;1765861;79;21230;-61
2021/04/16 03:42:51;;;;;;;5.95;3.08;;;;;;;20.65;43.34;100871.09;1758322;79;21218;-61
2021/04/16 03:45:18;;;;;;;3.92;2.80;;;;;;;20.63;43.33;100881.08;1783883;78;21205;-61
2021/04/16 03:47:45;;;;;;;6.22;2.92;;;;;;;20.62;43.33;100875.89;1760171;79;21189;-61
2021/04/16 03:50:14;;;;;;;3.83;2.62;;;;;;;20.61;43.30;100875.62;1782995;78;21190;-61
2021/04/16 03:52:40;;;;;;;4.05;2.65;;;;;;;20.60;43.30;100887.25;1791289;78;21304;-60
2021/04/16 03:55:08;;;;;;;4.10;2.60;;;;;;;20.57;43.31;100880.98;1770091;78;21282;-60
2021/04/16 03:57:35;;;;;;;3.75;2.85;;;;;;;20.58;43.35;100887.33;1760241;79;21285;-58
2021/04/16 04:00:04;;;;;;;4.97;2.42;;;;;;;20.55;43.31;100888.75;1786359;78;21225;-61
2021/04/16 04:02:31;;;;;;;4.80;2.92;;;;;;;20.54;43.34;100893.23;1778182;78;21257;-61
2021/04/16 04:04:57;;;;;;;4.55;2.47;;;;;;;20.53;43.35;100896.56;1761088;80;21224;-60
2021/04/16 04:07:24;;;;;;;4.42;2.85;;;;;;;20.53;43.39;100892.98;1772203;78;21336;-62
2021/04/16 04:09:50;;;;;;;5.65;2.27;;;;;;;20.54;43.42;100894.02;1764409;80;21146;-61
2021/04/16 04:12:17;;;;;;;4.28;2.70;;;;;;;20.55;43.40;100898.99;1755246;81;21484;-61
2021/04/16 04:14:43;;;;;;;4.45;2.45;;;;;;;20.54;43.39;100896.00;1756815;80;21919;-63
2021/04/16 04:17:27;;;;;;;5.12;2.35;;;;;;;20.54;43.43;100898.77;1780436;78;21137;-62
2021/04/16 04:19:54;;;;;;;8.55;2.58;;;;;;;20.53;43.45;100899.89;1783089;78;21525;-61
2021/04/16 04:22:21;;;;;;;3.52;2.30;;;;;;;20.51;43.49;100907.92;1773637;80;21585;-61
2021/04/16 04:24:47;;;;;;;3.98;2.35;;;;;;;20.50;43.57;100909.61;1760299;79;21172;-62
2021/04/16 04:27:14;;;;;;;14.78;2.98;;;;;;;20.49;43.64;100909.38;1757415;79;21162;-62
2021/04/16 04:29:42;;;;;;;4.00;2.52;;;;;;;20.47;43.74;100913.83;1747060;80;21147;-58
2021/04/16 04:32:08;;;;;;;4.83;3.08;;;;;;;20.47;43.83;100911.63;1758029;79;21185;-57
2021/04/16 04:34:35;;;;;;;6.45;3.22;;;;;;;20.45;43.85;100920.22;1767524;79;21207;-58
2021/04/16 04:37:04;;;;;;;5.10;2.67;;;;;;;20.41;43.86;100922.56;1752069;79;21129;-59
2021/04/16 04:39:34;;;;;;;3.20;2.55;;;;;;;20.39;43.88;100917.91;1749100;80;21277;-58
2021/04/16 04:42:02;;;;;;;4.50;2.77;;;;;;;20.37;43.88;100925.67;1747639;80;21606;-58
2021/04/16 04:44:28;;;;;;;3.67;2.40;;;;;;;20.33;43.85;100917.77;1752216;79;21208;-58
2021/04/16 04:46:55;;;;;;;4.97;2.55;;;;;;;20.29;43.83;100920.88;1754191;79;21961;-58
2021/04/16 04:49:22;;;;;;;4.50;3.08;;;;;;;20.25;43.81;100932.30;1774588;78;21168;-58
2021/04/16 04:51:49;;;;;;;5.62;2.87;;;;;;;20.21;43.78;100925.20;1773091;79;21172;-58
2021/04/16 04:54:16;;;;;;;3.80;2.40;;;;;;;20.16;43.74;100927.25;1756738;80;21150;-58
2021/04/16 04:56:43;;;;;;;5.03;2.50;;;;;;;20.12;43.70;100929.83;1757019;79;21322;-57
2021/04/16 04:59:10;;;;;;;3.62;2.55;;;;;;;20.06;43.70;100929.15;1745129;79;21170;-58
2021/04/16 05:01:36;;;;;;;3.77;2.47;;;;;;;20.00;43.67;100927.62;1746083;80;21519;-58
2021/04/16 05:04:06;;;;;;;3.85;2.60;;;;;;;19.97;43.64;100935.16;1744602;80;21171;-58
2021/04/16 05:06:32;;;;;;;4.30;2.83;;;;;;;19.95;43.59;100937.95;1748259;80;21252;-58
2021/04/16 05:08:59;;;;;;;2.85;2.02;;;;;;;19.93;43.54;100934.70;1754574;79;21536;-59
2021/04/16 05:11:26;;;;;;;3.87;2.45;;;;;;;19.91;43.49;100940.52;1754058;80;37704;-58
2021/04/16 05:13:53;;;;;;;4.35;2.58;;;;;;;19.90;43.42;100941.64;1754166;80;21268;-59
2021/04/16 05:16:20;;;;;;;6.47;2.42;;;;;;;19.87;43.36;100936.74;1764587;79;21265;-58
2021/04/16 05:18:48;;;;;;;5.83;2.72;;;;;;;19.84;43.29;100945.66;1741023;80;21222;-58
2021/04/16 05:21:15;;;;;;;4.95;2.83;;;;;;;19.80;43.23;100951.54;1739429;80;21164;-59
2021/04/16 05:23:42;;;;;;;3.55;2.35;;;;;;;19.76;43.16;100949.70;1749321;80;21130;-59
2021/04/16 05:26:08;;;;;;;5.72;2.70;;;;;;;19.72;43.11;100952.83;1755341;80;21171;-59
2021/04/16 05:28:35;;;;;;;4.28;2.42;;;;;;;19.67;43.07;100956.50;1758359;80;21142;-59
2021/04/16 05:31:01;;;;;;;4.75;2.33;;;;;;;19.64;43.05;100950.23;1748489;80;21210;-59
2021/04/16 05:33:28;;;;;;;3.20;2.17;;;;;;;19.61;43.01;100955.78;1770309;79;21207;-59
2021/04/16 05:35:54;;;;;;;3.85;2.27;;;;;;;19.62;43.00;100946.94;1764446;79;21518;-59
2021/04/16 05:38:21;;;;;;;4.92;2.42;;;;;;;19.61;42.92;100950.27;1775805;79;21193;-58
2021/04/16 05:40:48;;;;;;;2.98;2.15;;;;;;;19.60;42.87;100950.59;1777886;79;21101;-59
2021/04/16 05:43:15;;;;;;;3.67;2.67;;;;;;;19.59;42.81;100953.09;1790829;79;21165;-59
2021/04/16 05:45:41;;;;;;;4.45;2.58;;;;;;;19.56;42.74;100953.13;1771361;79;21446;-59
2021/04/16 05:48:09;;;;;;;3.92;2.52;;;;;;;19.53;42.66;100953.74;1782463;79;21623;-58
2021/04/16 05:50:35;;;;;;;4.12;2.10;;;;;;;19.50;42.61;100951.60;1780852;78;21246;-59
2021/04/16 05:53:03;;;;;;;4.35;2.62;;;;;;;19.47;42.56;100955.55;1775581;78;21453;-59
2021/04/16 05:55:30;;;;;;;3.80;2.20;;;;;;;19.44;42.53;100954.75;1763193;79;21212;-59
2021/04/16 05:57:58;;;;;;;3.52;2.20;;;;;;;19.41;42.48;100960.30;1769339;79;21209;-59
2021/04/16 06:00:25;;;;;;;5.17;2.37;;;;;;;19.38;42.45;100957.34;1774162;79;21640;-59
2021/04/16 06:02:53;;;;;;;3.12;2.35;;;;;;;19.38;42.44;100960.10;1792010;78;21189;-59
2021/04/16 06:05:20;;;;;;;4.42;2.10;;;;;;;19.38;42.44;100949.89;1738355;79;21210;-59
2021/04/16 06:07:47;;;;;;;3.30;2.10;;;;;;;19.38;42.38;100953.20;1781593;79;21177;-59
2021/04/16 06:10:15;;;;;;;3.22;2.30;;;;;;;19.38;42.32;100960.10;1797803;78;21263;-59
2021/04/16 06:12:43;;;;;;;3.50;2.02;;;;;;;19.36;42.31;100955.44;1773984;79;21229;-58
2021/04/16 06:15:13;;;;;;;6.42;1.98;;;;;;;19.35;42.25;100957.96;1768936;79;21241;-59
2021/04/16 06:17:40;;;;;;;2.95;2.08;;;;;;;19.33;42.21;100961.02;1744964;79;21134;-59
2021/04/16 06:20:10;;;;;;;3.22;2.22;;;;;;;19.30;42.16;100956.67;1765100;79;21210;-58
2021/04/16 06:22:36;;;;;;;3.05;2.17;;;;;;;19.26;42.11;100952.33;1712520;82;21261;-59
2021/04/16 06:25:05;;;;;;;3.52;2.12;;;;;;;19.24;42.10;100966.98;1762608;79;21908;-59
2021/04/16 06:27:32;;;;;;;4.92;2.50;;;;;;;19.22;42.09;100969.23;1761641;79;21253;-59
2021/04/16 06:29:59;;;;;;;4.05;2.50;;;;;;;19.20;42.06;100969.27;1773923;79;21589;-58
2021/04/16 06:32:25;;;;;;;2.90;2.00;;;;;;;19.18;42.05;100964.86;1766213;79;21248;-59
2021/04/16 06:34:53;;;;;;;3.00;2.08;;;;;;;19.18;42.05;100956.59;1769118;79;21511;-59
2021/04/16 06:37:20;;;;;;;3.00;1.90;;;;;;;19.18;42.00;100959.91;1763325;79;21553;-58
2021/04/16 06:39:47;;;;;;;2.92;1.87;;;;;;;19.18;41.94;100966.24;1768507;79;21151;-59
2021/04/16 06:42:29;;;;;;;3.30;2.05;;;;;;;19.19;41.93;100962.93;1769984;79;21478;-59
2021/04/16 06:44:58;;;;;;;2.62;1.85;;;;;;;19.18;41.88;100964.05;1753997;80;21208;-59
2021/04/16 06:47:37;;;;;;;2.65;1.60;;;;;;;19.15;41.83;100967.42;1758483;79;21173;-59
2021/04/16 06:50:05;;;;;;;2.47;1.95;;;;;;;19.14;41.81;100967.16;1782048;78;21131;-59
2021/04/16 06:52:42;;;;;;;3.70;1.95;;;;;;;19.10;41.78;100959.23;1757096;79;21151;-59
2021/04/16 06:55:17;;;;;;;2.77;1.90;;;;;;;19.09;41.77;100962.58;1773815;78;21207;-59
2021/04/16 06:57:57;;;;;;;2.77;1.80;;;;;;;19.06;41.76;100961.78;1770891;78;21459;-59
2021/04/16 07:00:41;;;;;;;2.92;2.02;;;;;;;19.04;41.74;100966.80;1784784;78;21190;-59
2021/04/16 07:03:24;;;;;;;2.67;1.82;;;;;;;19.03;41.74;100971.23;1781646;78;21141;-59
2021/04/16 07:06:02;;;;;;;2.52;1.65;;;;;;;19.05;41.71;100980.82;1780512;79;21270;-59
2021/04/16 07:08:42;;;;;;;2.60;1.67;;;;;;;19.03;41.68;100976.19;1778642;79;21454;-59
2021/04/16 07:11:29;;;;;;;2.30;1.87;;;;;;;19.02;41.67;100975.92;1745106;80;21166;-59
2021/04/16 07:14:00;;;;;;;4.42;1.77;;;;;;;19.01;41.62;100979.80;1747201;80;21209;-60
2021/04/16 07:16:26;;;;;;;2.30;1.70;;;;;;;18.99;41.60;100972.95;1744613;80;21633;-60
2021/04/16 07:19:18;;;;;;;3.02;2.05;;;;;;;18.98;41.58;100980.96;1781034;78;21308;-59
2021/04/16 07:21:44;;;;;;;2.83;1.72;;;;;;;18.95;41.56;100977.44;1674645;81;21165;-59
2021/04/16 07:24:13;;;;;;;2.37;1.70;;;;;;;18.93;41.55;100974.97;1655969;81;21582;-59
2021/04/16 07:26:51;;;;;;;2.50;1.62;;;;;;;18.91;41.53;100973.66;1673428;83;21270;-60
2021/04/16 07:29:42;;;;;;;2.00;1.47;;;;;;;18.90;41.52;100984.41;1669241;83;21244;-59
2021/04/16 07:32:35;;;;;;;2.90;1.85;;;;;;;18.90;41.52;100982.48;1669088;84;21182;-59
2021/04/16 07:35:27;;;;;;;3.92;1.90;;;;;;;18.91;41.50;100983.30;1651902;84;21210;-59
2021/04/16 07:38:14;;;;;;;2.45;1.60;;;;;;;18.92;41.46;100986.33;1616484;84;21187;-59
2021/04/16 07:40:44;;;;;;;3.77;1.70;;;;;;;18.90;41.41;100981.66;1592168;87;21261;-59
2021/04/16 07:43:32;;;;;;;2.42;1.70;;;;;;;18.88;41.35;100984.73;1617403;86;21198;-59
2021/04/16 07:46:24;;;;;;;3.08;2.30;;;;;;;18.91;41.32;100971.72;1823442;75;27963;-61
2021/04/16 07:48:51;;;;;;;1.98;1.52;;;;;;;18.96;40.99;100982.66;1776887;77;21025;-59
2021/04/16 07:51:28;;;;;;;2.85;2.05;;;;;;;18.95;40.96;100978.81;1798039;77;21339;-60
2021/04/16 07:53:56;;;;;;;1.85;1.50;;;;;;;18.92;40.97;100981.63;1794599;77;21459;-60
2021/04/16 07:56:23;;;;;;;2.87;1.87;;;;;;;18.91;41.00;100972.27;1723878;77;21030;-59
2021/04/16 07:59:04;;;;;;;2.47;1.80;;;;;;;18.89;41.03;100976.70;1799061;77;21043;-59
2021/04/16 08:01:37;;;;;;;2.67;1.85;;;;;;;18.89;41.06;100971.74;1800071;77;21217;-58
2021/04/16 08:04:11;;;;;;;2.08;1.57;;;;;;;18.90;41.04;100976.14;1809654;77;22158;-59
2021/04/16 08:06:44;;;;;;;2.98;1.80;;;;;;;18.89;41.04;100979.45;1798961;77;21349;-61
2021/04/16 08:09:27;;;;;;;2.25;1.72;;;;;;;18.87;41.03;100981.71;1796316;77;21200;-59
2021/04/16 08:12:13;;;;;;;3.67;1.85;;;;;;;18.86;41.01;100977.31;1804566;77;21791;-59
2021/04/16 08:14:43;;;;;;;2.33;1.70;;;;;;;18.84;41.01;100982.87;1806393;77;21707;-60
2021/04/16 08:17:26;;;;;;;2.22;1.42;;;;;;;18.81;41.01;100979.33;1740788;80;22105;-60
2021/04/16 08:19:52;;;;;;;2.00;1.60;;;;;;;18.78;41.02;100978.00;1766833;79;21164;-58
2021/04/16 08:22:31;;;;;;;2.35;1.72;;;;;;;18.77;41.04;100976.91;1771909;79;21166;-59
2021/04/16 08:25:12;;;;;;;2.20;1.45;;;;;;;18.76;41.06;100974.71;1783478;77;21383;-59
2021/04/16 08:27:50;;;;;;;3.85;1.90;;;;;;;18.77;41.06;100972.22;1785114;77;21181;-59
2021/04/16 08:30:36;;;;;;;3.17;1.40;;;;;;;18.77;41.09;100970.02;1786337;77;21811;-60
2021/04/16 08:33:30;;;;;;;2.77;1.47;;;;;;;18.78;41.08;100963.40;1783814;77;21168;-58
2021/04/16 08:36:20;;;;;;;1.77;1.47;;;;;;;18.78;41.06;100977.18;1771613;77;21572;-58
2021/04/16 08:39:16;;;;;;;2.30;1.55;;;;;;;18.77;41.06;100965.89;1740171;80;21645;-60
2021/04/16 08:41:53;;;;;;;2.52;1.55;;;;;;;18.75;41.06;100969.52;1787277;77;21167;-58
2021/04/16 08:44:20;;;;;;;3.33;1.75;;;;;;;18.73;41.03;100960.16;1774442;77;22592;-59
2021/04/16 08:46:52;;;;;;;1.98;1.32;;;;;;;18.71;41.02;100972.86;1781400;77;21104;-58
2021/04/16 08:49:26;;;;;;;2.00;1.57;;;;;;;18.70;41.03;100960.77;1785602;77;21147;-59
2021/04/16 08:52:07;;;;;;;2.58;1.40;;;;;;;18.70;41.05;100965.73;1783300;77;21203;-59
2021/04/16 08:54:37;;;;;;;1.75;1.30;;;;;;;18.70;41.04;100971.80;1781555;77;21200;-59
2021/04/16 08:57:28;;;;;;;1.55;1.20;;;;;;;18.73;41.05;100966.23;1784759;77;21409;-59
2021/04/16 09:00:21;;;;;;;2.52;1.57;;;;;;;18.74;41.04;100966.50;1738122;80;21221;-58
2021/04/16 09:02:51;;;;;;;1.95;1.32;;;;;;;18.74;41.03;100964.56;1761448;79;21239;-58
2021/04/16 09:05:26;;;;;;;2.80;1.50;;;;;;;18.74;41.00;100960.43;1766734;79;21167;-58
2021/04/16 09:08:10;;;;;;;3.08;1.30;;;;;;;18.74;40.98;100952.16;1729823;80;21471;-58
2021/04/16 09:10:42;;;;;;;3.02;1.30;;;;;;;18.74;40.98;100954.09;1733089;80;22176;-60
2021/04/16 09:13:42;;;;;;;3.40;1.40;;;;;;;18.75;40.96;100965.39;1726791;80;21187;-60
2021/04/16 09:19:31;;;;;;;2.02;1.40;;;;;;;18.74;40.91;100947.20;1748242;81;21572;-60
2021/04/16 09:22:11;;;;;;;2.00;1.40;;;;;;;18.74;40.89;100948.03;1732422;81;21608;-58
2021/04/16 09:24:56;;;;;;;3.52;1.35;;;;;;;18.74;40.86;100938.94;1733332;81;21360;-59
2021/04/16 09:27:39;;;;;;;1.60;1.25;;;;;;;18.75;40.85;100947.47;1737066;81;21147;-59
2021/04/16 09:30:14;;;;;;;1.95;1.37;;;;;;;18.76;40.87;100940.26;1719684;81;21137;-60
2021/04/16 09:32:52;;;;;;;1.92;1.25;;;;;;;18.79;40.83;100934.17;1723253;81;21520;-59
2021/04/16 09:35:31;;;;;;;2.17;1.40;;;;;;;18.81;40.81;100933.84;1725910;81;21115;-59
2021/04/16 09:38:27;;;;;;;2.33;1.40;;;;;;;18.82;40.79;100916.19;1735194;81;22137;-60
2021/04/16 09:41:26;;;;;;;2.15;1.40;;;;;;;18.83;40.77;100921.97;1735291;81;21178;-60
2021/04/16 09:43:57;;;;;;;1.87;1.30;;;;;;;18.82;40.75;100914.25;1737354;80;21155;-58
2021/04/16 09:46:38;;;;;;;4.33;1.98;;;;;;;18.82;40.72;100917.02;1741442;80;21150;-59
2021/04/16 09:49:27;;;;;;;1.77;1.10;;;;;;;18.82;40.72;100914.25;1740866;80;21253;-59
2021/04/16 09:51:57;;;;;;;2.08;1.50;;;;;;;18.84;40.69;100913.38;1736159;80;21794;-58
2021/04/16 09:54:37;;;;;;;2.50;1.40;;;;;;;18.87;40.69;100900.94;1743826;80;21218;-59
2021/04/16 09:57:09;;;;;;;1.98;1.32;;;;;;;18.90;40.67;100905.84;1733189;80;21119;-59
2021/04/16 09:59:37;;;;;;;1.55;1.30;;;;;;;18.92;40.66;100911.33;1737694;80;21155;-60
2021/04/16 10:02:18;;;;;;;1.60;1.20;;;;;;;18.95;40.64;100908.52;1736193;81;21045;-60
2021/04/16 10:04:56;;;;;;;2.12;1.20;;;;;;;18.97;40.60;100905.70;1728139;81;21213;-60
2021/04/16 10:07:36;;;;;;;2.17;1.20;;;;;;;19.02;40.60;100896.52;1744592;81;21107;-57
2021/04/16 10:10:37;;;;;;;2.62;1.40;;;;;;;19.04;40.54;100911.66;1732050;81;21165;-59
2021/04/16 10:13:16;;;;;;;2.80;1.15;;;;;;;19.08;40.50;100902.20;1731972;81;21069;-59
2021/04/16 10:15:45;;;;;;;1.57;1.15;;;;;;;19.10;40.44;100904.90;1748683;81;21150;-59
2021/04/16 10:18:31;;;;;;;1.82;1.05;;;;;;;19.11;40.43;100925.84;1740267;81;22154;-60
2021/04/16 10:21:19;;;;;;;1.50;0.90;;;;;;;19.13;40.43;100910.39;1737303;81;21117;-60
2021/04/16 10:23:51;;;;;;;2.40;1.30;;;;;;;19.15;40.41;100906.19;1741613;81;21177;-61
2021/04/16 10:51:17;;;;;;;2.87;1.50;;;;;;;19.49;40.19;100914.64;1717111;82;21219;-58
2021/04/16 12:41:21;;;;;;;1.77;0.98;;;;;;;20.41;39.21;100871.45;1713528;83;21575;-59
2021/04/16 12:43:48;;;;;;;1.60;0.80;;;;;;;20.40;39.21;100869.81;1716127;83;21206;-59
2021/04/16 12:46:17;;;;;;;1.62;0.95;;;;;;;20.40;39.23;100880.30;1715738;83;21242;-59
2021/04/16 12:48:44;;;;;;;1.92;0.98;;;;;;;20.41;39.22;100864.54;1718601;83;21242;-59
2021/04/16 12:51:11;;;;;;;2.67;1.40;;;;;;;20.42;39.23;100866.15;1714460;83;21642;-59
2021/04/16 12:53:38;;;;;;;1.25;0.80;;;;;;;20.43;39.22;100869.17;1717269;83;21237;-59
2021/04/16 12:56:07;;;;;;;1.67;0.90;;;;;;;20.45;39.21;100867.71;1717650;83;21182;-58
2021/04/16 12:58:41;;;;;;;1.35;0.80;;;;;;;20.50;39.19;100869.53;1719348;83;21103;-58
2021/04/16 13:01:11;;;;;;;1.62;0.98;;;;;;;20.54;39.16;100865.00;1722778;83;21185;-58
2021/04/16 13:03:40;;;;;;;1.90;0.93;;;;;;;20.58;39.13;100846.66;1737305;82;21086;-58
2021/04/16 13:06:26;;;;;;;2.80;1.00;;;;;;;20.64;39.08;100850.11;1729559;82;21221;-58
2021/04/16 13:08:53;;;;;;;1.52;0.90;;;;;;;20.66;39.07;100847.86;1732076;82;21174;-58
2021/04/16 13:11:21;;;;;;;1.82;0.90;;;;;;;20.68;39.04;100850.55;1723027;82;21220;-59
2021/04/16 13:13:50;;;;;;;2.00;0.90;;;;;;;20.69;39.03;100856.89;1730992;81;21644;-57
2021/04/16 13:16:16;;;;;;;1.50;0.80;;;;;;;20.67;39.00;100848.91;1721935;82;21142;-59
2021/04/16 13:18:47;;;;;;;1.87;0.95;;;;;;;20.66;38.99;100844.53;1723939;82;21554;-58
2021/04/16 13:21:33;;;;;;;1.92;1.07;;;;;;;20.68;39.01;100852.48;1715373;81;21254;-59
2021/04/16 13:24:00;;;;;;;1.42;0.70;;;;;;;20.70;38.98;100837.80;1719376;82;21204;-58
2021/04/16 13:26:27;;;;;;;1.30;0.90;;;;;;;20.72;38.99;100837.72;1723518;82;21624;-58
2021/04/16 13:28:54;;;;;;;1.37;0.88;;;;;;;20.75;38.99;100838.45;1734065;81;21133;-59
2021/04/16 13:31:23;;;;;;;1.52;0.72;;;;;;;20.77;38.98;100843.11;1737475;81;21287;-58
2021/04/16 13:33:49;;;;;;;1.57;1.00;;;;;;;20.79;38.96;100853.87;1734785;81;21169;-58
2021/04/16 13:36:18;;;;;;;1.42;0.90;;;;;;;20.81;38.95;100851.02;1738367;81;21157;-58
2021/04/16 13:38:46;;;;;;;1.12;0.85;;;;;;;20.82;38.94;100851.84;1718300;81;21504;-58
2021/04/16 13:41:13;;;;;;;1.40;0.85;;;;;;;20.84;38.91;100842.64;1723050;81;21160;-58
2021/04/16 13:43:39;;;;;;;1.52;0.90;;;;;;;20.85;38.90;100853.40;1700358;82;21196;-60
2021/04/16 13:46:10;;;;;;;1.47;0.98;;;;;;;20.87;38.89;100850.33;1734318;80;21180;-59
2021/04/16 13:48:36;;;;;;;2.15;1.12;;;;;;;20.88;38.88;100847.22;1740666;81;21136;-59
2021/04/16 13:51:03;;;;;;;1.25;0.80;;;;;;;20.88;38.88;100843.08;1727410;81;21133;-59
2021/04/16 13:53:30;;;;;;;1.87;0.85;;;;;;;20.88;38.86;100847.22;1731515;81;21575;-59
2021/04/16 13:55:57;;;;;;;1.57;0.80;;;;;;;20.88;38.85;100844.45;1737199;81;21467;-59
2021/04/16 13:58:24;;;;;;;1.47;1.05;;;;;;;20.88;38.86;100848.61;1723090;81;21158;-58